METAR stanice u blizini

 

LYNI - Nis, Yugoslavia
Distance from station: JZ 40km
Ažurirano: 07/04/2020 17:00
Vedro
Vedro
 Pravac vetra ISI
Vetar: ISI 20 km/h
Temperatura: 17°C
Tačka rose: -12°C
Vlažnost: 13%
Pritisak: 1030 hPa
Pregled: Vedro
Vidljivost: greater than 10 km
2020/04/07 15:00 LYNI 071500Z 06011KT 020V100 CAVOK 17/M12 Q1030 NOSIG
LYKV - Kraljevo, Yugoslavia
Distance from station: ZSZ 136km
Ažurirano: 07/04/2020 17:00
Vedro
Vedro
 Pravac vetra I
Vetar: I 17 km/h
Temperatura: 17°C
Tačka rose: -12°C
Vlažnost: 13%
Pritisak: 1031 hPa
Pregled: Vedro
Vidljivost: greater than 10 km
2020/04/07 15:00 LYKV 071500Z 09009KT 060V120 CAVOK 17/M12 Q1031 NOSIG
LBSF - Sofia (observato, Bulgaria
Distance from station: JI 138km
Ažurirano: 07/04/2020 17:00
Vedro
Vedro
 Pravac vetra ISI
Vetar: ISI 26 km/h
Temperatura: 13°C
Tačka rose: -7°C
Vlažnost: 24%
Pritisak: 1029 hPa
Pregled: Vedro
Vidljivost: greater than 10 km
2020/04/07 15:00 LBSF 071500Z 06014KT CAVOK 13/M07 Q1029 NOSIG
 
BKPR - Prishtina, Yugoslavia
Distance from station: JZ 147km
Ažurirano: 07/04/2020 17:30
Vedro
Vedro
 Pravac vetra SI
Vetar: SI 28 km/h
Temperatura: 15°C
Tačka rose: -11°C
Vlažnost: 16%
Pritisak: 1028 hPa
Pregled: Vedro
Vidljivost: greater than 10 km
2020/04/07 15:30 BKPR 071530Z 05015KT CAVOK 15/M11 Q1028 NOSIG
LRCV - Craiova, Romania
Distance from station: SI 154km
Ažurirano: 07/04/2020 17:00
Vedro
Vedro
 Pravac vetra I
Vetar: I 13 km/h
Temperatura: 15°C
Tačka rose: -7°C
Vlažnost: 21%
Pritisak: 1032 hPa
Pregled: Vedro
Vidljivost: greater than 10 km
2020/04/07 15:00 LRCV 071500Z 09007KT CAVOK 15/M07 Q1032
LWSK - Skopje/Petrovac, Macedonia
Distance from station: JJZ 185km
Ažurirano: 07/04/2020 17:00
Vedro
Vedro
 Pravac vetra SI
Vetar: SI 17 km/h
Temperatura: 18°C
Tačka rose: -9°C
Vlažnost: 15%
Pritisak: 1027 hPa
Pregled: Vedro
Vidljivost: greater than 10 km
2020/04/07 15:00 LWSK 071500Z 04009KT CAVOK 18/M09 Q1027 NOSIG
 
LYVR - Vrsac, Yugoslavia
Distance from station: SSZ 189km
Ažurirano: 07/04/2020 17:00
Vedro
Vedro
 Pravac vetra SSZ
Vetar: SSZ 9 km/h
Temperatura: 19°C
Tačka rose: -7°C
Vlažnost: 17%
Pritisak: 1032 hPa
Pregled: Vedro
Vidljivost: greater than 10 km
2020/04/07 15:00 LYVR 071500Z 34005KT 300V030 CAVOK 19/M07 Q1032
LYUZ - Uzice-Ponikve, Yugoslavia
Distance from station: Z 207km
Ažurirano: 07/04/2020 17:00
Vedro
Vedro
 Pravac vetra ISI
Vetar: ISI 19 km/h
Temperatura: 11°C
Tačka rose: -13°C
Vlažnost: 17%
Pritisak: 1030 hPa
Pregled: Vedro
Vidljivost: greater than 10 km
2020/04/07 15:00 LYUZ 071500Z AUTO 06010KT 020V100 CAVOK 11/M13 Q1030
LYBE - Belgrade/Surcin, Yugoslavia
Distance from station: SZ 209km
Ažurirano: 07/04/2020 17:00
Vedro
Vedro
 Pravac vetra I
Vetar: I 20 km/h
Temperatura: 18°C
Tačka rose: -9°C
Vlažnost: 15%
Pritisak: 1031 hPa
Pregled: Vedro
Vidljivost: greater than 10 km
2020/04/07 15:00 LYBE 071500Z 09011KT CAVOK 18/M09 Q1031 NOSIG
 
LYBT - Batajnica, Yugoslavia
Distance from station: SZ 219km
Ažurirano: 07/04/2020 17:00
Vedro
Vedro
 Pravac vetra I
Vetar: I 20 km/h
Temperatura: 18°C
Tačka rose: -11°C
Vlažnost: 13%
Pritisak: 1031 hPa
Pregled: Vedro
Vidljivost: greater than 10 km
2020/04/07 15:00 LYBT 071500Z 09011KT 050V120 CAVOK 18/M11 Q1031 NOSIG
LRTR - Timisoara/Giarma, Romania
Distance from station: SSZ 260km
Ažurirano: 07/04/2020 17:00
Vedro
Vedro
 Pravac vetra SZ
Vetar: SZ 11 km/h
Temperatura: 18°C
Tačka rose: -5°C
Vlažnost: 21%
Pritisak: 1031 hPa
Pregled: Vedro
Vidljivost: greater than 10 km
2020/04/07 15:00 LRTR 071500Z 32006KT CAVOK 18/M05 Q1031
LBPD - Plovdiv, Bulgaria
Distance from station: JI 263km
Ažurirano: 07/04/2020 17:00
Vedro
Vedro
 Pravac vetra IJI
Vetar: IJI 24 km/h
Temperatura: 16°C
Tačka rose: -5°C
Vlažnost: 23%
Pritisak: 1029 hPa
Oblaci: Vedro
Vidljivost: 10 km
2020/04/07 15:00 LBPD 071500Z AUTO 11013KT 9999 NCD 16/M05 Q1029 NOSIG
 
LYPG - Podgorica(Titogr, Yugoslavia
Distance from station: ZJZ 278km
Ažurirano: 07/04/2020 17:00
Vedro
Vedro
 Pravac vetra J
Vetar: J 11 km/h
Temperatura: 22°C
Tačka rose: -8°C
Vlažnost: 13%
Pritisak: 1025 hPa
Pregled: Vedro
Vidljivost: greater than 10 km
2020/04/07 15:00 LYPG 071500Z 18006KT 150V210 CAVOK 22/M08 Q1025 NOSIG
LBGO - Gorna Orechovist, Bulgaria
Distance from station: I 285km
Ažurirano: 07/04/2020 17:00
Vedro
Vedro
 Pravac vetra SI
Vetar: SI 20 km/h
Temperatura: 17°C
Tačka rose: -7°C
Vlažnost: 19%
Pritisak: 1031 hPa
Oblaci: Vedro
Vidljivost: 10 km
2020/04/07 15:00 LBGO 071500Z AUTO 04011KT 9999 NCD 17/M07 Q1031 NOSIG
LRSB - Sibiu/Turnisor, Romania
Distance from station: SSI 286km
Ažurirano: 07/04/2020 17:00
Vedro
Vedro
 Pravac vetra IJI
Vetar: IJI 11 km/h
Temperatura: 17°C
Tačka rose: -14°C
Vlažnost: 11%
Pritisak: 1031 hPa
Pregled: Vedro
Vidljivost: greater than 10 km
2020/04/07 15:00 LRSB 071500Z 12006KT CAVOK 17/M14 Q1031
 
LWOH - Ohrid, Macedonia
Distance from station: JJZ 292km
Ažurirano: 07/04/2020 17:00
Few Clouds
Few Clouds
 Pravac vetra SSI
Vetar: SSI 11 km/h
Temperatura: 14°C
Tačka rose: -13°C
Vlažnost: 14%
Pritisak: 1026 hPa
Oblaci: Few Clouds
Vidljivost: 10 km
Cloud details: Few Clouds 1219 m
2020/04/07 15:00 LWOH 071500Z 02006KT 350V080 9999 FEW040 14/M13 Q1026
LQTZ - Tuzla, Yugoslavia
Distance from station: ZSZ 298km
Ažurirano: 07/04/2020 15:00
NOT Current
Vedro
Vedro
 Pravac vetra I
Vetar: I 17 km/h
Temperatura: 19°C
Tačka rose: -2°C
Vlažnost: 24%
Pritisak: 1030 hPa
Pregled: Vedro
Vidljivost: greater than 10 km
2020/04/07 13:00 LQTZ 071300Z 10009KT 040V120 CAVOK 19/M02 Q1030
LRAR - Arad, Romania
Distance from station: SSZ 301km
Ažurirano: 07/04/2020 17:00
Vedro
Vedro
 Pravac vetra SSI
Vetar: SSI 11 km/h
Temperatura: 19°C
Tačka rose: -8°C
Vlažnost: 15%
Pritisak: 1031 hPa
Pregled: Vedro
Vidljivost: greater than 10 km
2020/04/07 15:00 LRAR 071500Z 03006KT 350V070 CAVOK 19/M08 Q1031
 
LYTV - Tivat, Yugoslavia
Distance from station: ZJZ 315km
Ažurirano: 07/04/2020 17:00
Vedro
Vedro
 Pravac vetra JZ
Vetar: JZ 7 km/h
Temperatura: 19°C
Tačka rose: 5°C
Vlažnost: 40%
Pritisak: 1025 hPa
Pregled: Vedro
Vidljivost: greater than 10 km
2020/04/07 15:00 LYTV 071500Z 23004KT 160V300 CAVOK 19/05 Q1025 NOSIG
LATI - Tirana, Albania
Distance from station: JZ 316km
Ažurirano: 07/04/2020 17:20
Vedro
Vedro
 Pravac vetra J
Vetar: J 17 km/h
Temperatura: 22°C
Tačka rose: -5°C
Vlažnost: 16%
Pritisak: 1023 hPa
Pregled: Vedro
Vidljivost: greater than 10 km
2020/04/07 15:20 LATI 071520Z 18009KT CAVOK 22/M05 Q1023 NOSIG
LQBK - Banja Luka, Yugoslavia
Distance from station: SZ 426km
Ažurirano: 07/04/2020 17:00
Vedro
Vedro
 Pravac vetra I
Vetar: I 19 km/h
Temperatura: 20°C
Tačka rose: -8°C
Vlažnost: 14%
Pritisak: 1030 hPa
Pregled: Vedro
Vidljivost: greater than 10 km
2020/04/07 15:00 LQBK 071500Z 08010KT CAVOK 20/M08 Q1030 NOSIG
 
LDOS - Osijek, Croatia
Distance from station: SSZ 360km
Ažurirano: 07/04/2020 17:00
Vedro
Vedro
 Pravac vetra I
Vetar: I 22 km/h
Temperatura: 18°C
Tačka rose: -8°C
Vlažnost: 16%
Pritisak: 1031 hPa
Pregled: Vedro
Vidljivost: greater than 10 km
2020/04/07 15:00 LDOS 071500Z 09012KT 070V130 CAVOK 18/M08 Q1031
LDDU - Dubrovnik-Cilipi, Croatia
Distance from station: JZ 352km
Ažurirano: 07/04/2020 17:00
Vedro
Vedro
 Pravac vetra ZSZ
Vetar: ZSZ 19 km/h
Temperatura: 16°C
Tačka rose: 3°C
Vlažnost: 42%
Pritisak: 1025 hPa
Pregled: Vedro
Vidljivost: greater than 10 km
2020/04/07 15:00 LDDU 071500Z 30010KT 270V330 CAVOK 16/03 Q1025 NOSIG
LQMO - Mostar Airport, Bosnia-Herzegovina
Distance from station: Z 359km
Ažurirano: 28/03/2020 11:30
NOT Current
Few Clouds
Few Clouds
 Pravac vetra JI
Vetar: JI 11 km/h
Temperatura: 17°C
Tačka rose: 3°C
Vlažnost: 39%
Pritisak: 1011 hPa
Oblaci: Few Clouds
Vidljivost: 10 km
Cloud details: Few Clouds 1524 m
2020/03/28 10:30 LQMO 281030Z 13006KT 100V160 9999 FEW050 17/03 Q1011
 
LQSA - Sarajevo/Butmir, Yugoslavia
Distance from station: Z 311km
Ažurirano: 07/04/2020 16:00
NOT Current
Vedro
Vedro
 Pravac vetra I
Vetar: I 11 km/h
Temperatura: 20°C
Tačka rose: -15°C
Vlažnost: 8%
Pritisak: 1028 hPa
Pregled: Vedro
Vidljivost: greater than 10 km
2020/04/07 14:00 LQSA 071400Z 08006KT 340V140 CAVOK 20/M15 Q1028
LDSP - Split/Kastel Sta, Croatia
Distance from station: Z 468km
Ažurirano: 07/04/2020 17:00
Vedro
Vedro
 Pravac vetra JZ
Vetar: JZ 17 km/h
Temperatura: 19°C
Tačka rose: 0°C
Vlažnost: 28%
Pritisak: 1026 hPa
Pregled: Vedro
Vidljivost: greater than 10 km
2020/04/07 15:00 LDSP 071500Z 23009KT CAVOK 19/M00 Q1026 NOSIG
LDZD - Zadar/Zemunik, Croatia
Distance from station: ZSZ 567km
Ažurirano: 07/04/2020 17:00
Vedro
Vedro
 Pravac vetra ZSZ
Vetar: ZSZ 24 km/h
Temperatura: 18°C
Tačka rose: -2°C
Vlažnost: 26%
Pritisak: 1027 hPa
Pregled: Vedro
Vidljivost: greater than 10 km
2020/04/07 15:00 LDZD 071500Z 29013KT 260V320 CAVOK 18/M02 Q1027 NOSIG
 
LDZA - Zagreb/Pleso, Croatia
Distance from station: SZ 555km
Ažurirano: 07/04/2020 17:00
Vedro
Vedro
 Pravac vetra ISI
Vetar: ISI 15 km/h
Temperatura: 20°C
Tačka rose: -6°C
Vlažnost: 17%
Pritisak: 1030 hPa
Pregled: Vedro
Vidljivost: greater than 10 km
2020/04/07 15:00 LDZA 071500Z 07008KT 010V120 CAVOK 20/M06 Q1030 NOSIG
LJCE - Cerklje, Slovenia
Distance from station: SZ 680km
Ažurirano: 07/04/2020 17:00
Vedro
Vedro
 Pravac vetra I
Vetar: I 17 km/h
Temperatura: 20°C
Tačka rose: -7°C
Vlažnost: 16%
Pritisak: 1030 hPa
Pregled: Vedro
Vidljivost: greater than 10 km
2020/04/07 15:00 LJCE 071500Z 10009KT 050V150 CAVOK 20/M07 Q1030 RMK BLU
LJMB - Maribor, Slovenia
Distance from station: SZ 616km
Ažurirano: 07/04/2020 17:00
Vedro
Vedro
 Pravac vetra varies
Vetar: varies 7 km/h
Temperatura: 18°C
Tačka rose: -8°C
Vlažnost: 16%
Pritisak: 1031 hPa
Pregled: Vedro
Vidljivost: greater than 10 km
2020/04/07 15:00 LJMB 071500Z VRB04KT CAVOK 18/M08 Q1031
 
LJLJ - Ljubljana/Brnik, Slovenia
Distance from station: SZ 671km
Ažurirano: 07/04/2020 17:00
Vedro
Vedro
 Pravac vetra I
Vetar: I 20 km/h
Temperatura: 19°C
Tačka rose: -6°C
Vlažnost: 18%
Pritisak: 1029 hPa
Pregled: Vedro
Vidljivost: greater than 10 km
2020/04/07 15:00 LJLJ 071500Z 10011KT 070V140 CAVOK 19/M06 Q1029 NOSIG
LDRI - Rijeka, Croatia
Distance from station: SZ 650km
Ažurirano: 07/04/2020 17:00
Vedro
Vedro
 Pravac vetra varies
Vetar: varies 7 km/h
Temperatura: 22°C
Tačka rose: -8°C
Vlažnost: 13%
Pritisak: 1027 hPa
Pregled: Vedro
Vidljivost: greater than 10 km
2020/04/07 15:00 LDRI 071500Z VRB04KT CAVOK 22/M08 Q1027
LDPL - Pula, Croatia
Distance from station: ZSZ 686km
Ažurirano: 07/04/2020 17:00
Vedro
Vedro
 Pravac vetra Z
Vetar: Z 17 km/h
Temperatura: 19°C
Tačka rose: -4°C
Vlažnost: 21%
Pritisak: 1028 hPa
Pregled: Vedro
Vidljivost: greater than 10 km
2020/04/07 15:00 LDPL 071500Z 26009KT CAVOK 19/M04 Q1028 NOSIG
 
LJPZ - Portorož, Slovenia
Distance from station: ZSZ 720km
Ažurirano: 07/04/2020 17:00
Vedro
Vedro
 Pravac vetra JZ
Vetar: JZ 11 km/h
Temperatura: 20°C
Tačka rose: -1°C
Vlažnost: 24%
Pritisak: 1027 hPa
Pregled: Vedro
Vidljivost: greater than 10 km
2020/04/07 15:00 LJPZ 071500Z 22006KT 190V250 CAVOK 20/M01 Q1027